Becket Corners, Massachusetts
Current Conditions -  °F | °C
As of 9:54 PM on Tuesday 21 Oct 2014 (Local Time) from KPSF Reporting Station
Overcast Overcast  
Wind Chill: 50°   Ceiling: 1100
Heat Index: 50°   Visibility: 10mi
Dew Point: 48°   Wind: 6mph
Humidity: 93%   Direction: 30°NNE
Pressure: 29.97"   Gusts: NA
Location:  42.3623°N, 73.1505°W
Report Text: KPSF 220154Z AUTO 03005KT 10SM OVC011 10/09 A2997 RMK AO2 SLP143 T01000089
Loading
Personal Weather Stations






























Interactive Weather Map New forecast layout! Learn more

10-Day Weather Forecast

Advertisements
Track Severe Weather on mobile